Time;durP1;ratioP1;P1;durP2;ratioP2;P2;SDS_P1;SDS_P2;PMS_P1;PMS_P2;Temp;Humidity;BMP_temperature;BMP_pressure;BME280_temperature;BME280_humidity;BME280_pressure;Samples;Min_cycle;Max_cycle;Signal;HPM_P1;HPM_P2
2021/07/16 00:01:31;;;;;;;;;;;21.00;99.90;;;;;;5093283;28;19912;-61
2021/07/16 00:03:57;;;;;;;;;;;21.00;99.90;;;;;;5094199;28;19912;-62
2021/07/16 00:06:23;;;;;;;;;;;21.00;99.90;;;;;;5094339;28;20277;-62
2021/07/16 00:08:49;;;;;;;;;;;21.00;99.90;;;;;;5089518;28;19931;-62
2021/07/16 00:11:15;;;;;;;;;;;21.00;99.90;;;;;;5085662;28;19928;-62
2021/07/16 00:13:41;;;;;;;;;;;21.00;99.90;;;;;;5073811;28;19927;-62
2021/07/16 00:16:07;;;;;;;;;;;20.90;99.90;;;;;;5073864;28;20424;-62
2021/07/16 00:18:33;;;;;;;;;;;20.90;99.90;;;;;;5073827;28;19919;-63
2021/07/16 00:21:01;;;;;;;;;;;20.90;99.90;;;;;;5074030;28;19919;-62
2021/07/16 00:23:27;;;;;;;;;;;20.90;99.90;;;;;;5077517;28;19913;-62
2021/07/16 00:25:53;;;;;;;;;;;20.90;99.90;;;;;;5074054;28;20381;-62
2021/07/16 00:28:19;;;;;;;;;;;20.90;99.90;;;;;;5081604;28;19912;-62
2021/07/16 00:30:45;;;;;;;;;;;20.90;99.90;;;;;;5088805;28;19916;-63
2021/07/16 00:33:11;;;;;;;;;;;20.90;99.90;;;;;;5111252;28;19991;-63
2021/07/16 00:35:37;;;;;;;;;;;20.90;99.90;;;;;;5090280;28;19912;-63
2021/07/16 00:38:03;;;;;;;;;;;20.80;99.90;;;;;;5090205;28;19932;-62
2021/07/16 00:40:29;;;;;;;;;;;20.90;99.90;;;;;;5093451;28;19908;-62
2021/07/16 00:42:54;;;;;;;;;;;20.90;99.90;;;;;;5093649;28;19916;-62
2021/07/16 00:45:22;;;;;;;;;;;20.90;99.90;;;;;;5093604;28;20254;-62
2021/07/16 00:47:48;;;;;;;;;;;20.80;99.90;;;;;;5089290;28;19912;-61
2021/07/16 00:50:15;;;;;;;;;;;20.80;99.90;;;;;;5086108;28;19920;-62
2021/07/16 00:52:41;;;;;;;;;;;20.80;99.90;;;;;;5076654;28;19916;-62
2021/07/16 00:55:07;;;;;;;;;;;20.80;99.90;;;;;;5073262;28;19927;-62
2021/07/16 00:57:33;;;;;;;;;;;20.80;99.90;;;;;;5073329;28;19909;-62
2021/07/16 00:59:59;;;;;;;;;;;20.80;99.90;;;;;;5083217;28;19920;-62
2021/07/16 01:02:25;;;;;;;;;;;20.70;99.90;;;;;;5093404;28;19916;-62
2021/07/16 01:04:52;;;;;;;;;;;20.70;99.90;;;;;;5092425;28;19916;-62
2021/07/16 01:07:18;;;;;;;;;;;20.70;99.90;;;;;;5093705;28;20279;-62
2021/07/16 01:09:46;;;;;;;;;;;20.70;99.90;;;;;;5092568;28;19916;-62
2021/07/16 01:12:12;;;;;;;;;;;20.70;99.90;;;;;;5093348;28;20375;-62
2021/07/16 01:14:38;;;;;;;;;;;20.70;99.90;;;;;;5079038;28;19920;-61
2021/07/16 01:17:04;;;;;;;;;;;20.70;99.90;;;;;;5092258;28;19912;-62
2021/07/16 01:19:40;;;;;;;;;;;20.60;99.90;;;;;;5077530;28;19912;-62
2021/07/16 01:22:08;;;;;;;;;;;20.60;99.90;;;;;;5081533;28;20320;-62
2021/07/16 01:24:34;;;;;;;;;;;20.60;99.90;;;;;;5077983;28;20304;-62
2021/07/16 01:27:00;;;;;;;;;;;20.70;99.90;;;;;;5091606;28;19932;-62
2021/07/16 01:29:25;;;;;;;;;;;20.70;99.90;;;;;;5080403;28;19923;-61
2021/07/16 01:31:51;;;;;;;;;;;20.70;99.90;;;;;;5077220;28;19915;-62
2021/07/16 01:34:17;;;;;;;;;;;20.60;99.90;;;;;;5092595;28;20474;-61
2021/07/16 01:36:43;;;;;;;;;;;20.60;99.90;;;;;;5077217;28;19916;-62
2021/07/16 01:39:09;;;;;;;;;;;20.70;99.90;;;;;;5096049;28;19921;-61
2021/07/16 01:41:35;;;;;;;;;;;20.70;99.90;;;;;;5076764;28;20389;-63
2021/07/16 01:44:02;;;;;;;;;;;20.70;99.90;;;;;;5076684;28;19958;-62
2021/07/16 01:46:28;;;;;;;;;;;20.70;99.90;;;;;;5084494;28;19912;-62
2021/07/16 01:48:54;;;;;;;;;;;20.60;99.90;;;;;;5097185;28;19923;-62
2021/07/16 01:51:20;;;;;;;;;;;20.60;99.90;;;;;;5083972;28;20404;-62
2021/07/16 01:53:45;;;;;;;;;;;20.60;99.90;;;;;;5076480;28;19932;-62
2021/07/16 01:56:11;;;;;;;;;;;20.50;99.90;;;;;;5076960;28;19923;-62
2021/07/16 01:58:37;;;;;;;;;;;20.50;99.90;;;;;;5076552;28;19936;-62
2021/07/16 02:01:04;;;;;;;;;;;20.40;99.90;;;;;;5076371;28;19912;-62
2021/07/16 02:03:30;;;;;;;;;;;20.40;99.90;;;;;;5077545;28;19913;-62
2021/07/16 02:05:56;;;;;;;;;;;20.40;99.90;;;;;;5096621;28;19928;-62
2021/07/16 02:08:23;;;;;;;;;;;20.40;99.90;;;;;;5096580;28;19916;-62
2021/07/16 02:10:49;;;;;;;;;;;20.40;99.90;;;;;;5096541;28;19923;-62
2021/07/16 02:13:15;;;;;;;;;;;20.30;99.90;;;;;;5080727;28;19927;-61
2021/07/16 02:15:42;;;;;;;;;;;20.30;99.90;;;;;;5078442;28;20325;-61
2021/07/16 02:18:08;;;;;;;;;;;20.20;99.90;;;;;;5075890;28;19917;-63
2021/07/16 02:20:34;;;;;;;;;;;20.20;99.90;;;;;;5075830;28;19919;-62
2021/07/16 02:23:03;;;;;;;;;;;20.20;99.90;;;;;;5077024;28;19935;-62
2021/07/16 02:25:28;;;;;;;;;;;20.20;99.90;;;;;;5091735;28;19908;-63
2021/07/16 02:27:55;;;;;;;;;;;20.20;99.90;;;;;;5075875;28;19912;-63
2021/07/16 02:30:21;;;;;;;;;;;20.20;99.90;;;;;;5089906;28;19908;-63
2021/07/16 02:32:47;;;;;;;;;;;20.20;99.90;;;;;;5094841;28;19919;-63
2021/07/16 02:35:13;;;;;;;;;;;20.10;99.90;;;;;;5096006;28;19939;-63
2021/07/16 02:37:39;;;;;;;;;;;20.10;99.90;;;;;;5095900;28;19920;-62
2021/07/16 02:40:06;;;;;;;;;;;20.10;99.90;;;;;;5095686;28;20400;-62
2021/07/16 02:42:32;;;;;;;;;;;20.10;99.90;;;;;;5095866;28;19916;-62
2021/07/16 02:44:58;;;;;;;;;;;20.10;99.90;;;;;;5090563;28;19922;-63
2021/07/16 02:47:24;;;;;;;;;;;20.10;99.90;;;;;;5092223;28;20292;-63
2021/07/16 02:49:49;;;;;;;;;;;20.10;99.90;;;;;;5095630;28;19913;-62
2021/07/16 02:52:15;;;;;;;;;;;20.10;99.90;;;;;;5096265;28;19916;-62
2021/07/16 02:54:41;;;;;;;;;;;20.10;99.90;;;;;;5093969;28;19924;-62
2021/07/16 02:57:07;;;;;;;;;;;20.10;99.90;;;;;;5079349;28;19920;-63
2021/07/16 02:59:33;;;;;;;;;;;20.10;99.90;;;;;;5079530;28;19972;-63
2021/07/16 03:01:59;;;;;;;;;;;20.10;99.90;;;;;;5090244;28;19924;-62
2021/07/16 03:04:25;;;;;;;;;;;20.10;99.90;;;;;;5083089;28;20369;-63
2021/07/16 03:06:51;;;;;;;;;;;20.10;99.90;;;;;;5076811;28;20289;-62
2021/07/16 03:09:17;;;;;;;;;;;20.10;99.90;;;;;;5074205;28;19908;-62
2021/07/16 03:11:43;;;;;;;;;;;20.10;99.90;;;;;;5075167;28;19916;-62
2021/07/16 03:14:09;;;;;;;;;;;20.10;99.90;;;;;;5074033;28;19920;-62
2021/07/16 03:16:35;;;;;;;;;;;20.10;99.90;;;;;;5074983;28;20357;-62
2021/07/16 03:19:01;;;;;;;;;;;20.10;99.90;;;;;;5079451;28;19912;-61
2021/07/16 03:21:27;;;;;;;;;;;20.10;99.90;;;;;;5094819;28;19908;-62
2021/07/16 03:23:53;;;;;;;;;;;20.10;99.90;;;;;;5095288;28;19942;-62
2021/07/16 03:26:19;;;;;;;;;;;20.20;99.90;;;;;;5095111;28;19919;-62
2021/07/16 03:28:45;;;;;;;;;;;20.10;99.90;;;;;;5080443;28;19935;-62
2021/07/16 03:31:11;;;;;;;;;;;20.10;99.90;;;;;;5074614;28;19913;-62
2021/07/16 03:33:37;;;;;;;;;;;20.10;99.90;;;;;;5074626;28;19927;-62
2021/07/16 03:36:04;;;;;;;;;;;20.20;99.90;;;;;;5074511;28;20251;-62
2021/07/16 03:38:30;;;;;;;;;;;20.20;99.90;;;;;;5074430;28;20289;-62
2021/07/16 03:40:58;;;;;;;;;;;20.20;99.90;;;;;;5074521;28;19922;-62
2021/07/16 03:43:24;;;;;;;;;;;20.20;99.90;;;;;;5082117;28;19916;-61
2021/07/16 03:45:50;;;;;;;;;;;20.20;99.90;;;;;;5080579;28;19916;-61
2021/07/16 03:48:16;;;;;;;;;;;20.30;99.90;;;;;;5087980;28;19919;-61
2021/07/16 03:50:42;;;;;;;;;;;20.30;99.90;;;;;;5092844;28;19956;-61
2021/07/16 03:53:08;;;;;;;;;;;20.30;99.90;;;;;;5094448;28;19926;-62
2021/07/16 03:55:34;;;;;;;;;;;20.30;99.90;;;;;;5085496;28;19920;-62
2021/07/16 03:58:01;;;;;;;;;;;20.30;99.90;;;;;;5078498;28;19917;-62
2021/07/16 04:00:29;;;;;;;;;;;20.40;99.90;;;;;;5074059;28;19920;-62
2021/07/16 04:02:55;;;;;;;;;;;20.40;99.90;;;;;;5074157;28;19912;-61
2021/07/16 04:05:21;;;;;;;;;;;20.40;99.90;;;;;;5092901;28;19916;-61
2021/07/16 04:07:49;;;;;;;;;;;20.50;99.90;;;;;;5079970;28;19916;-62
2021/07/16 04:10:18;;;;;;;;;;;20.50;99.90;;;;;;5085860;28;19924;-62
2021/07/16 04:12:51;;;;;;;;;;;20.60;99.90;;;;;;5075502;28;19938;-62
2021/07/16 04:15:17;;;;;;;;;;;20.60;99.90;;;;;;5076896;28;19928;-62
2021/07/16 04:17:43;;;;;;;;;;;20.60;99.90;;;;;;5076190;28;19920;-62
2021/07/16 04:20:09;;;;;;;;;;;20.70;99.90;;;;;;5089932;28;19915;-62
2021/07/16 04:22:35;;;;;;;;;;;20.70;99.90;;;;;;5088016;28;20297;-62
2021/07/16 04:25:01;;;;;;;;;;;20.80;99.90;;;;;;5078525;28;19917;-62
2021/07/16 04:27:27;;;;;;;;;;;20.80;99.90;;;;;;5082512;28;19916;-62
2021/07/16 04:29:53;;;;;;;;;;;20.80;99.90;;;;;;5085805;28;19909;-62
2021/07/16 04:32:19;;;;;;;;;;;20.80;99.90;;;;;;5074673;28;19916;-63
2021/07/16 04:34:45;;;;;;;;;;;20.90;99.90;;;;;;5078886;28;19917;-62
2021/07/16 04:37:11;;;;;;;;;;;20.90;99.90;;;;;;5089223;28;20317;-63
2021/07/16 04:39:37;;;;;;;;;;;20.90;99.90;;;;;;5091696;28;19920;-62
2021/07/16 04:42:03;;;;;;;;;;;21.00;99.90;;;;;;5074652;28;19999;-62
2021/07/16 04:44:31;;;;;;;;;;;21.00;99.90;;;;;;5093573;28;19908;-63
2021/07/16 04:46:57;;;;;;;;;;;21.10;99.90;;;;;;5091597;28;20395;-62
2021/07/16 04:49:22;;;;;;;;;;;21.10;99.90;;;;;;5074407;28;19917;-63
2021/07/16 04:51:48;;;;;;;17.67;12.07;;;21.20;99.90;;;;;;5073086;28;20400;-67
2021/07/16 04:54:16;;;;;;;;;;;21.20;99.90;;;;;;5072354;28;20220;-62
2021/07/16 04:56:45;;;;;;;;;;;21.20;99.90;;;;;;5073333;28;19904;-62
2021/07/16 04:59:11;;;;;;;;;;;21.20;99.90;;;;;;5073317;28;19904;-62
2021/07/16 05:01:37;;;;;;;;;;;21.20;99.90;;;;;;5073216;28;19917;-62
2021/07/16 05:04:03;;;;;;;;;;;21.30;99.90;;;;;;5071832;28;20379;-61
2021/07/16 05:06:28;;;;;;;;;;;21.30;99.90;;;;;;5072989;28;19979;-62
2021/07/16 05:08:54;;;;;;;;;;;21.40;99.90;;;;;;5072905;28;19908;-62
2021/07/16 05:11:20;;;;;;;;;;;21.40;99.90;;;;;;5073405;28;20357;-63
2021/07/16 05:13:47;;;;;;;;;;;21.50;99.90;;;;;;5071824;28;19912;-63
2021/07/16 05:16:13;;;;;;;;;;;21.50;99.90;;;;;;5093146;28;19915;-62
2021/07/16 05:18:39;;;;;;;;;;;21.70;99.90;;;;;;5092006;28;20218;-62
2021/07/16 05:21:05;;;;;;;;;;;21.70;99.90;;;;;;5092791;28;19960;-63
2021/07/16 05:23:31;;;;;;;;;;;21.80;99.90;;;;;;5092054;28;20380;-62
2021/07/16 05:25:57;;;;;;;;;;;21.80;99.90;;;;;;5093060;28;19908;-62
2021/07/16 05:28:23;;;;;;;;;;;21.90;99.90;;;;;;5093122;28;20277;-62
2021/07/16 05:30:49;;;;;;;;;;;22.00;99.90;;;;;;5093128;28;19904;-62
2021/07/16 05:33:15;;;;;;;;;;;22.00;99.90;;;;;;5092980;28;19904;-62
2021/07/16 05:35:41;;;;;;;;;;;22.20;99.90;;;;;;5093083;28;19919;-62
2021/07/16 05:38:08;;;;;;;;;;;22.20;99.90;;;;;;5092618;28;19920;-62
2021/07/16 05:40:34;;;;;;;;;;;22.30;99.90;;;;;;5092944;28;19911;-62
2021/07/16 05:43:09;;;;;;;;;;;22.40;99.90;;;;;;5078252;28;19919;-62
2021/07/16 05:45:35;;;;;;;;;;;22.40;99.90;;;;;;5092890;28;19911;-61
2021/07/16 05:48:02;;;;;;;;;;;22.60;99.90;;;;;;5093057;28;19904;-60
2021/07/16 05:50:28;;;;;;;;;;;22.60;99.90;;;;;;5086477;28;19912;-61
2021/07/16 05:52:54;;;;;;;;;;;22.70;99.90;;;;;;5076486;28;19977;-60
2021/07/16 05:55:20;;;;;;;;;;;22.80;99.90;;;;;;5072742;28;19916;-67
2021/07/16 05:57:46;;;;;;;;;;;22.90;99.90;;;;;;5072797;28;19952;-66
2021/07/16 06:00:12;;;;;;;;;;;23.00;99.90;;;;;;5072563;28;19904;-67
2021/07/16 06:02:38;;;;;;;;;;;23.10;99.90;;;;;;5079739;28;19919;-66
2021/07/16 06:05:04;;;;;;;;;;;23.20;99.90;;;;;;5091978;28;19935;-67
2021/07/16 06:07:30;;;;;;;;;;;23.30;99.90;;;;;;5084378;28;20377;-65
2021/07/16 06:09:56;;;;;;;;;;;23.30;99.90;;;;;;5078948;28;19923;-66
2021/07/16 06:12:22;;;;;;;;;;;23.40;99.90;;;;;;5094694;28;20366;-66
2021/07/16 06:14:54;;;;;;;;;;;23.40;99.90;;;;;;5088127;28;19935;-61
2021/07/16 06:17:20;;;;;;;;;;;23.50;99.90;;;;;;5081498;28;19912;-62
2021/07/16 06:19:46;;;;;;;;;;;23.60;99.90;;;;;;5075908;28;20247;-62
2021/07/16 06:22:12;;;;;;;;;;;23.60;99.90;;;;;;5074737;28;19915;-62
2021/07/16 06:24:38;;;;;;;;;;;23.70;99.90;;;;;;5076002;28;19916;-61
2021/07/16 06:27:04;;;;;;;;;;;23.80;99.90;;;;;;5075928;28;19915;-62
2021/07/16 06:29:30;;;;;;;;;;;23.90;99.90;;;;;;5075523;28;20296;-66
2021/07/16 06:31:55;;;;;;;;;;;24.00;99.90;;;;;;5075792;28;19924;-66
2021/07/16 06:34:21;;;;;;;;;;;24.30;99.90;;;;;;5080069;28;19920;-67
2021/07/16 06:36:47;;;;;;;;;;;24.40;99.90;;;;;;5082536;28;19912;-66
2021/07/16 06:39:13;;;;;;;;;;;24.50;99.90;;;;;;5083453;28;19931;-67
2021/07/16 06:41:39;;;;;;;;;;;24.60;99.90;;;;;;5084568;28;20272;-66
2021/07/16 06:44:06;;;;;;;;;;;24.70;99.90;;;;;;5083768;28;19911;-66
2021/07/16 06:46:32;;;;;;;;;;;24.70;99.90;;;;;;5083958;28;19920;-66
2021/07/16 06:48:58;;;;;;;;;;;24.70;99.90;;;;;;5085108;28;20392;-65
2021/07/16 06:51:24;;;;;;;;;;;25.00;99.90;;;;;;5087338;28;19912;-67
2021/07/16 06:53:50;;;;;;;;;;;25.20;99.90;;;;;;5082722;28;19912;-66
2021/07/16 06:56:16;;;;;;;;;;;25.30;99.90;;;;;;5082285;28;19916;-66
2021/07/16 06:58:42;;;;;;;;;;;25.30;99.90;;;;;;5079468;28;20357;-66
2021/07/16 07:01:07;;;;;;;;;;;25.30;99.90;;;;;;5083498;28;19919;-65
2021/07/16 07:03:33;;;;;;;;;;;25.20;99.90;;;;;;5083283;28;19921;-65
2021/07/16 07:05:59;;;;;;;;;;;25.30;99.90;;;;;;5085203;28;19912;-65
2021/07/16 07:08:25;;;;;;;;;;;25.40;99.90;;;;;;5083471;28;20337;-64
2021/07/16 07:10:51;;;;;;;;;;;25.60;99.90;;;;;;5079810;28;19916;-67
2021/07/16 07:13:17;;;;;;;;;;;25.70;99.90;;;;;;5077664;28;19913;-67
2021/07/16 07:15:43;;;;;;;;;;;26.00;99.90;;;;;;5086479;28;19916;-67
2021/07/16 07:18:09;;;;;;;;;;;26.20;99.90;;;;;;5092137;28;19912;-67
2021/07/16 07:20:37;;;;;;;;;;;26.40;99.90;;;;;;5091175;28;19916;-66
2021/07/16 07:23:03;;;;;;;;;;;26.60;99.90;;;;;;5082056;28;19908;-66
2021/07/16 07:25:29;;;;;;;14.38;11.80;;;26.60;99.80;;;;;;5086621;28;20403;-67
2021/07/16 07:27:56;;;;;;;17.23;11.33;;;26.60;99.90;;;;;;5081271;28;20394;-64
2021/07/16 07:30:22;;;;;;;17.08;11.27;;;26.70;99.50;;;;;;5083200;28;20405;-64
2021/07/16 07:32:48;;;;;;;16.05;11.65;;;26.90;98.60;;;;;;5080738;28;20448;-63
2021/07/16 07:35:14;;;;;;;13.73;11.40;;;27.00;98.60;;;;;;5082594;28;20404;-63
2021/07/16 07:37:41;;;;;;;19.10;11.73;;;27.00;97.30;;;;;;5086649;28;20860;-62
2021/07/16 07:40:09;;;;;;;15.15;11.40;;;27.20;98.10;;;;;;5080895;28;20924;-65
2021/07/16 07:42:35;;;;;;;13.82;11.38;;;27.20;97.90;;;;;;5079868;28;20373;-62
2021/07/16 07:45:02;;;;;;;12.75;11.45;;;27.10;97.90;;;;;;5086888;28;20405;-62
2021/07/16 07:47:32;;;;;;;14.02;12.30;;;27.00;98.00;;;;;;5086614;28;20850;-64
2021/07/16 07:50:03;;;;;;;12.60;11.30;;;27.10;98.10;;;;;;5088925;28;20861;-63
2021/07/16 07:52:29;;;;;;;41.38;13.73;;;27.30;97.40;;;;;;5087162;28;20853;-63
2021/07/16 07:54:55;;;;;;;15.57;11.75;;;27.40;97.70;;;;;;5085952;28;20408;-64
2021/07/16 07:57:22;;;;;;;14.43;12.35;;;27.30;97.60;;;;;;5078865;28;20716;-64
2021/07/16 07:59:48;;;;;;;13.73;12.32;;;27.20;97.30;;;;;;5078701;28;20382;-65
2021/07/16 08:02:14;;;;;;;13.50;11.98;;;27.30;97.40;;;;;;5080263;28;20727;-65
2021/07/16 08:04:41;;;;;;;13.63;12.23;;;27.40;97.00;;;;;;5079075;28;20388;-65
2021/07/16 08:07:07;;;;;;;14.05;12.55;;;27.40;97.10;;;;;;5078059;28;20436;-65
2021/07/16 08:09:33;;;;;;;15.50;12.70;;;27.20;96.50;;;;;;5078590;28;20401;-65
2021/07/16 08:12:00;;;;;;;14.40;12.52;;;27.20;97.00;;;;;;5079196;28;20373;-65
2021/07/16 08:14:26;;;;;;;20.97;13.10;;;27.20;96.70;;;;;;5075469;28;21134;-64
2021/07/16 08:16:52;;;;;;;13.55;12.15;;;27.10;97.10;;;;;;5074965;28;20390;-64
2021/07/16 08:19:18;;;;;;;13.75;12.00;;;27.10;97.30;;;;;;5078090;28;20393;-65
2021/07/16 08:21:46;;;;;;;23.77;13.03;;;27.40;97.00;;;;;;5081431;28;20392;-64
2021/07/16 08:24:12;;;;;;;13.23;11.82;;;27.70;95.90;;;;;;5086340;28;20378;-65
2021/07/16 08:26:39;;;;;;;15.43;12.38;;;27.70;94.80;;;;;;5072560;28;20417;-64
2021/07/16 08:29:05;;;;;;;15.85;11.95;;;28.10;95.50;;;;;;5079711;28;20476;-64
2021/07/16 08:31:31;;;;;;;;;;;28.40;94.00;;;;;;5081513;28;20733;-64
2021/07/16 08:33:57;;;;;;;;;;;28.70;93.60;;;;;;5078443;28;19916;-64
2021/07/16 08:36:22;;;;;;;;;;;28.70;91.90;;;;;;5089294;28;19912;-64
2021/07/16 08:38:48;;;;;;;;;;;28.80;91.70;;;;;;5085778;28;19920;-64
2021/07/16 08:41:15;;;;;;;12.60;11.30;;;29.10;91.90;;;;;;5075657;28;20806;-65
2021/07/16 08:43:42;;;;;;;15.40;12.10;;;28.90;91.30;;;;;;5075904;28;20407;-65
2021/07/16 08:46:11;;;;;;;13.85;12.13;;;28.80;91.80;;;;;;5080047;28;20208;-64
2021/07/16 08:48:37;;;;;;;14.75;11.57;;;28.90;91.50;;;;;;5077804;28;20198;-64
2021/07/16 08:51:04;;;;;;;12.20;11.00;;;29.10;91.60;;;;;;5079487;28;20189;-64
2021/07/16 08:53:32;;;;;;;13.23;11.25;;;29.30;89.80;;;;;;5077828;28;20569;-68
2021/07/16 08:55:58;;;;;;;;;;;29.40;87.80;;;;;;5077641;28;20220;-66
2021/07/16 08:58:24;;;;;;;;;;;29.40;89.40;;;;;;5080236;28;20324;-66
2021/07/16 09:00:50;;;;;;;;;;;29.50;87.70;;;;;;5080937;28;19919;-67
2021/07/16 09:03:16;;;;;;;;;;;29.80;86.30;;;;;;5077790;28;20288;-67
2021/07/16 09:05:43;;;;;;;;;;;30.00;85.20;;;;;;5079600;28;19916;-66
2021/07/16 09:08:15;;;;;;;;;;;30.10;84.10;;;;;;5081728;28;19920;-67
2021/07/16 09:10:52;;;;;;;14.80;11.40;;;30.20;81.40;;;;;;5080577;28;20119;-67
2021/07/16 09:13:18;;;;;;;35.33;12.10;;;30.30;80.40;;;;;;5076465;28;20292;-67
2021/07/16 09:15:52;;;;;;;13.00;10.60;;;30.30;79.30;;;;;;5074435;28;20212;-66
2021/07/16 09:18:24;;;;;;;11.77;10.57;;;30.50;77.80;;;;;;5075049;28;20176;-66
2021/07/16 09:21:09;;;;;;;10.93;9.82;;;31.00;75.90;;;;;;5073450;28;20185;-66
2021/07/16 09:23:43;;;;;;;22.00;10.95;;;30.80;74.90;;;;;;5077469;28;20177;-67
2021/07/16 09:26:14;;;;;;;20.15;11.13;;;30.30;74.70;;;;;;5078264;28;20181;-63
2021/07/16 09:28:50;;;;;;;10.65;9.55;;;29.70;77.10;;;;;;5077771;28;20184;-64
2021/07/16 09:31:17;;;;;;;11.68;9.55;;;29.80;74.00;;;;;;5079576;28;20158;-63
2021/07/16 09:33:51;;;;;;;25.45;11.68;;;30.40;74.20;;;;;;5077738;28;20173;-64
2021/07/16 09:36:38;;;;;;;10.55;9.32;;;30.50;70.80;;;;;;5078612;28;20231;-64
2021/07/16 09:39:12;;;;;;;10.13;9.13;;;30.00;69.20;;;;;;5080852;28;20217;-63
2021/07/16 09:41:54;;;;;;;12.43;10.10;;;29.50;70.50;;;;;;5076709;28;20167;-64
2021/07/16 09:44:40;;;;;;;10.32;8.88;;;29.50;70.60;;;;;;5077294;28;20182;-64
2021/07/16 09:47:14;;;;;;;15.75;10.40;;;29.80;70.40;;;;;;5081081;28;20169;-63
2021/07/16 09:49:41;;;;;;;10.23;8.80;;;30.10;70.90;;;;;;5065945;28;20579;-64
2021/07/16 09:52:12;;;;;;;68.10;10.10;;;30.20;67.20;;;;;;5086694;28;20195;-64
2021/07/16 09:54:38;;;;;;;11.85;9.32;;;30.40;68.40;;;;;;5088603;28;20209;-64
2021/07/16 09:57:04;;;;;;;;;;;30.50;67.80;;;;;;5087243;28;20028;-64
2021/07/16 09:59:31;;;;;;;;;;;30.50;66.30;;;;;;5085088;28;19912;-65
2021/07/16 10:01:57;;;;;;;;;;;30.70;66.00;;;;;;5083625;28;19912;-64
2021/07/16 10:04:33;;;;;;;;;;;30.70;61.20;;;;;;5084825;28;20388;-63
2021/07/16 10:06:59;;;;;;;;;;;31.10;62.50;;;;;;5084721;28;19928;-64
2021/07/16 10:09:25;;;;;;;;;;;31.60;62.00;;;;;;5086763;28;19921;-65
2021/07/16 10:11:52;;;;;;;;;;;32.20;62.50;;;;;;5085504;28;20265;-64
2021/07/16 10:14:18;;;;;;;;;;;32.30;57.00;;;;;;5083512;28;19916;-65
2021/07/16 10:16:47;;;;;;;;;;;32.10;58.40;;;;;;5086722;28;19927;-63
2021/07/16 10:19:13;;;;;;;;;;;32.10;54.10;;;;;;5088956;28;19913;-63
2021/07/16 10:21:39;;;;;;;;;;;32.00;56.30;;;;;;5092076;28;19916;-63
2021/07/16 10:24:05;;;;;;;;;;;32.10;55.80;;;;;;5085768;28;19923;-64
2021/07/16 10:26:31;;;;;;;;;;;32.10;56.40;;;;;;5083803;28;20322;-64
2021/07/16 10:28:57;;;;;;;;;;;32.30;58.20;;;;;;5087625;28;20297;-65
2021/07/16 10:31:29;;;;;;;;;;;32.30;57.30;;;;;;5088123;28;19912;-65
2021/07/16 10:33:55;;;;;;;;;;;31.90;57.90;;;;;;5091571;28;19938;-65
2021/07/16 10:36:36;;;;;;;;;;;31.40;50.30;;;;;;5092406;28;19927;-64
2021/07/16 10:39:05;;;;;;;;;;;31.20;49.30;;;;;;5090359;28;20280;-64
2021/07/16 10:41:32;;;;;;;;;;;31.10;48.40;;;;;;5093519;28;19908;-64
2021/07/16 10:43:58;;;;;;;;;;;31.20;46.20;;;;;;5091394;28;19915;-64
2021/07/16 10:46:27;;;;;;;;;;;31.30;49.20;;;;;;5092740;28;20288;-64
2021/07/16 10:48:53;;;;;;;;;;;31.60;53.60;;;;;;5090382;28;20284;-64
2021/07/16 10:51:23;;;;;;;;;;;31.40;54.10;;;;;;5094231;28;19912;-64
2021/07/16 10:53:49;;;;;;;;;;;31.40;54.80;;;;;;5094877;28;19915;-64
2021/07/16 10:56:18;;;;;;;;;;;31.50;53.50;;;;;;5095382;28;19912;-64
2021/07/16 10:58:44;;;;;;;;;;;31.60;48.80;;;;;;5095303;28;19912;-64
2021/07/16 11:01:11;;;;;;;;;;;31.60;47.60;;;;;;5095128;28;19904;-64
2021/07/16 11:03:38;;;;;;;;;;;31.50;50.10;;;;;;5095741;28;19911;-65
2021/07/16 11:06:04;;;;;;;;;;;32.20;49.10;;;;;;5095219;28;19908;-65
2021/07/16 11:08:40;;;;;;;;;;;32.50;47.20;;;;;;5094834;28;20280;-65
2021/07/16 11:11:09;;;;;;;;;;;32.20;46.10;;;;;;5083907;28;19919;-64
2021/07/16 11:13:41;;;;;;;;;;;31.90;41.20;;;;;;5096107;28;19915;-63
2021/07/16 11:16:16;;;;;;;;;;;31.70;44.70;;;;;;5095012;28;19920;-63
2021/07/16 11:19:15;;;;;;;4.55;3.95;;;31.30;44.50;;;;;;5093375;28;20192;-63
2021/07/16 11:21:47;;;;;;;4.95;4.45;;;31.20;43.40;;;;;;5091029;28;20173;-62
2021/07/16 11:27:08;;;;;;;6.15;5.10;;;31.20;45.30;;;;;;5092846;28;20525;-63
2021/07/16 11:29:41;;;;;;;5.93;4.78;;;31.40;46.00;;;;;;5096277;28;20635;-63
2021/07/16 11:32:27;;;;;;;5.72;4.93;;;31.60;47.00;;;;;;5090873;28;20177;-63
2021/07/16 11:34:55;;;;;;;6.85;4.75;;;31.70;46.40;;;;;;5092056;28;20193;-63
2021/07/16 11:37:25;;;;;;;7.22;4.75;;;31.50;44.90;;;;;;5093556;28;20181;-63
2021/07/16 11:40:00;;;;;;;6.13;4.65;;;31.50;44.30;;;;;;5086144;28;20209;-63
2021/07/16 11:42:26;;;;;;;5.20;4.70;;;31.30;43.30;;;;;;5086279;28;20181;-63
2021/07/16 11:44:52;;;;;;;5.10;4.60;;;31.40;44.60;;;;;;5084542;28;20188;-62
2021/07/16 11:47:23;;;;;;;5.68;4.20;;;31.40;44.20;;;;;;5084796;28;20181;-62
2021/07/16 11:49:55;;;;;;;6.45;4.68;;;31.50;42.60;;;;;;5079079;28;20181;-62
2021/07/16 11:52:24;;;;;;;5.00;4.35;;;31.20;43.00;;;;;;5084266;28;20542;-61
2021/07/16 11:54:52;;;;;;;5.00;4.50;;;31.50;42.20;;;;;;5084250;28;20673;-60
2021/07/16 11:57:18;;;;;;;4.82;4.13;;;31.80;41.20;;;;;;5082322;28;20395;-61
2021/07/16 11:59:48;;;;;;;7.60;4.40;;;31.80;41.60;;;;;;5084286;28;20393;-60
2021/07/16 12:02:16;;;;;;;5.10;4.57;;;31.70;40.30;;;;;;5083375;28;20388;-60
2021/07/16 12:04:43;;;;;;;5.43;4.40;;;31.70;41.00;;;;;;5076117;28;20391;-60
2021/07/16 12:07:10;;;;;;;5.38;4.88;;;31.40;40.20;;;;;;5084892;28;20443;-61
2021/07/16 12:09:39;;;;;;;5.60;5.10;;;31.00;41.10;;;;;;5080904;28;20384;-60
2021/07/16 12:12:09;;;;;;;6.70;6.00;;;31.20;45.40;;;;;;5083535;28;20399;-61
2021/07/16 12:14:59;;;;;;;9.93;6.50;;;31.00;46.50;;;;;;5085510;28;20373;-60
2021/07/16 12:17:36;;;;;;;7.50;6.78;;;31.00;48.60;;;;;;5088750;28;20384;-60
2021/07/16 12:20:04;;;;;;;8.52;6.90;;;30.70;48.10;;;;;;5086637;28;20379;-62
2021/07/16 12:22:31;;;;;;;8.93;7.57;;;30.70;51.30;;;;;;5084416;28;20743;-60
2021/07/16 12:24:58;;;;;;;9.57;8.25;;;30.50;53.60;;;;;;5085571;28;20434;-60
2021/07/16 12:27:24;;;;;;;10.23;8.43;;;30.60;54.00;;;;;;5079973;28;20741;-61
2021/07/16 12:30:06;;;;;;;9.60;8.17;;;30.50;55.30;;;;;;5081123;28;20745;-60
2021/07/16 12:32:32;;;;;;;9.63;8.18;;;30.60;55.60;;;;;;5083912;28;20385;-60
2021/07/16 12:34:58;;;;;;;11.57;8.60;;;30.70;55.10;;;;;;5081837;28;20397;-62
2021/07/16 12:37:35;;;;;;;8.70;7.80;;;30.60;56.10;;;;;;5083537;28;20405;-61
2021/07/16 12:40:03;;;;;;;10.73;8.00;;;30.40;55.80;;;;;;5077416;28;20894;-62
2021/07/16 12:42:31;;;;;;;10.23;8.00;;;30.60;56.90;;;;;;5082070;28;20419;-61
2021/07/16 12:45:01;;;;;;;9.38;8.30;;;30.60;56.70;;;;;;5077734;28;21159;-61
2021/07/16 12:47:27;;;;;;;10.80;8.40;;;30.50;56.50;;;;;;5084258;28;20407;-61
2021/07/16 12:50:11;;;;;;;11.52;7.80;;;30.40;56.80;;;;;;5074063;28;20425;-60
2021/07/16 12:52:37;;;;;;;9.52;7.38;;;30.50;57.90;;;;;;5078039;28;20763;-59
2021/07/16 12:55:17;;;;;;;9.57;8.07;;;30.50;55.60;;;;;;5079994;28;20405;-60
2021/07/16 12:57:43;;;;;;;8.65;7.75;;;30.20;56.30;;;;;;5083270;28;20831;-60
2021/07/16 13:00:20;;;;;;;9.93;7.28;;;30.10;57.00;;;;;;5078641;28;20395;-61
2021/07/16 13:02:47;;;;;;;8.52;7.45;;;30.10;57.70;;;;;;5081090;28;20392;-59
2021/07/16 13:05:34;;;;;;;8.70;7.80;;;30.10;56.20;;;;;;5081907;28;20390;-59
2021/07/16 13:08:16;;;;;;;9.43;7.15;;;30.20;57.20;;;;;;5078872;28;20394;-59
2021/07/16 13:11:02;;;;;;;9.67;6.70;;;30.20;55.10;;;;;;5082141;28;20394;-61
2021/07/16 13:13:31;;;;;;;9.15;6.97;;;30.10;55.30;;;;;;5080925;28;20484;-63
2021/07/16 13:16:06;;;;;;;8.63;6.88;;;30.00;56.30;;;;;;5088105;28;20769;-63
2021/07/16 13:18:32;;;;;;;8.20;6.88;;;30.10;55.80;;;;;;5078752;28;20386;-62
2021/07/16 13:20:58;;;;;;;10.80;6.85;;;30.00;55.60;;;;;;5083561;28;20392;-62
2021/07/16 13:23:24;;;;;;;7.22;6.53;;;30.00;56.00;;;;;;5081131;28;20393;-63
2021/07/16 13:25:57;;;;;;;8.07;6.05;;;30.10;54.70;;;;;;5080510;28;20395;-62
2021/07/16 13:28:23;;;;;;;10.47;6.50;;;30.30;55.00;;;;;;5084657;28;20388;-62
2021/07/16 13:30:49;;;;;;;6.88;6.10;;;30.50;55.60;;;;;;5081612;28;20400;-63
2021/07/16 13:33:15;;;;;;;7.50;6.20;;;30.60;53.80;;;;;;5089098;28;20406;-62
2021/07/16 13:35:41;;;;;;;7.88;6.28;;;30.70;53.60;;;;;;5086892;28;20416;-63
2021/07/16 13:38:08;;;;;;;9.20;6.28;;;30.50;53.90;;;;;;5087932;28;20411;-62
2021/07/16 13:40:34;;;;;;;7.53;5.82;;;30.10;54.40;;;;;;5082701;28;20761;-62
2021/07/16 13:43:00;;;;;;;7.03;5.68;;;30.20;54.30;;;;;;5086026;28;20384;-63
2021/07/16 13:45:26;;;;;;;9.60;5.90;;;30.10;54.90;;;;;;5080462;28;20394;-62
2021/07/16 13:47:52;;;;;;;7.22;5.72;;;30.00;54.00;;;;;;5085296;28;20395;-62